Terminal Aerodrome Forecast
Issued by NWS Tuscon, AZ

Home | Current Version | Previous Version | Text Only | Print | Product List | Glossary On
Versions: 1 2 3 4 5 6 7 8 9 10 11 12 13
000
FTUS45 KTWC 242300
TAFDUG
TAF
KDUG 242325Z 2500/2524 26014G22KT P6SM BKN250
     FM250300 35008KT P6SM SCT250
     FM250900 12005KT P6SM SKC
     FM251500 22012G20KT P6SM SCT200
     FM251800 24022G35KT P6SM SCT250=

USA.gov is the U.S. government's official web portal to all federal, state and local government web resources and services.